Time;durP1;ratioP1;P1;durP2;ratioP2;P2;SDS_P1;SDS_P2;PMS_P1;PMS_P2;Temp;Humidity;BMP_temperature;BMP_pressure;BME280_temperature;BME280_humidity;BME280_pressure;Samples;Min_cycle;Max_cycle;Signal;HPM_P1;HPM_P2
2022/03/28 00:01:02;;;;;;;;;43.75;34.50;;;;;;;;5074093;28;45684;-65
2022/03/28 00:03:28;;;;;;;;;39.00;34.25;;;;;;;;5075066;28;45920;-66
2022/03/28 00:05:53;;;;;;;;;46.25;35.50;;;;;;;;5075394;28;45443;-65
2022/03/28 00:08:18;;;;;;;;;49.50;39.00;;;;;;;;5075003;28;45351;-66
2022/03/28 00:10:43;;;;;;;;;38.00;33.75;;;;;;;;5075735;27;45394;-66
2022/03/28 00:13:09;;;;;;;;;44.25;33.75;;;;;;;;5077055;28;46523;-66
2022/03/28 00:15:34;;;;;;;;;43.25;37.00;;;;;;;;5071846;28;45425;-66
2022/03/28 00:17:59;;;;;;;;;40.50;35.25;;;;;;;;5071993;28;45498;-65
2022/03/28 00:20:24;;;;;;;;;43.50;36.75;;;;;;;;5085013;27;45919;-64
2022/03/28 00:22:49;;;;;;;;;39.00;35.00;;;;;;;;5075810;28;45347;-65
2022/03/28 00:25:15;;;;;;;;;41.00;37.00;;;;;;;;5076198;28;45327;-66
2022/03/28 00:27:40;;;;;;;;;37.75;34.00;;;;;;;;5068392;28;45438;-66
2022/03/28 00:30:06;;;;;;;;;39.75;33.75;;;;;;;;5067815;28;45536;-65
2022/03/28 00:32:32;;;;;;;;;45.00;35.75;;;;;;;;5075830;27;45571;-65
2022/03/28 00:34:58;;;;;;;;;38.25;34.75;;;;;;;;5075237;27;45906;-65
2022/03/28 00:37:23;;;;;;;;;41.25;35.50;;;;;;;;5076325;27;45382;-65
2022/03/28 00:39:48;;;;;;;;;43.50;36.25;;;;;;;;5068653;28;46021;-65
2022/03/28 00:42:14;;;;;;;;;39.75;35.00;;;;;;;;5074788;28;46144;-65
2022/03/28 00:44:40;;;;;;;;;41.00;34.25;;;;;;;;5075769;28;45395;-65
2022/03/28 00:47:05;;;;;;;;;42.25;37.00;;;;;;;;5073235;28;45430;-64
2022/03/28 00:49:30;;;;;;;;;43.25;36.50;;;;;;;;5076221;27;45331;-64
2022/03/28 00:51:56;;;;;;;;;44.00;36.50;;;;;;;;5075230;27;45692;-62
2022/03/28 00:54:21;;;;;;;;;42.25;36.00;;;;;;;;5067224;28;45567;-64
2022/03/28 00:56:47;;;;;;;;;40.50;37.00;;;;;;;;5075751;28;45468;-64
2022/03/28 00:59:13;;;;;;;;;38.50;34.75;;;;;;;;5075866;27;45531;-64
2022/03/28 01:01:38;;;;;;;;;43.25;36.25;;;;;;;;5072779;28;46178;-65
2022/03/28 01:04:06;;;;;;;;;41.50;33.00;;;;;;;;5073566;27;45492;-67
2022/03/28 01:06:32;;;;;;;;;39.75;36.00;;;;;;;;5074520;27;45424;-65
2022/03/28 01:08:57;;;;;;;;;40.00;34.25;;;;;;;;5075363;27;45378;-66
2022/03/28 01:11:24;;;;;;;;;36.25;33.00;;;;;;;;5074738;28;46187;-65
2022/03/28 01:13:49;;;;;;;;;44.00;34.50;;;;;;;;5073309;27;45931;-65
2022/03/28 01:16:14;;;;;;;;;45.25;35.25;;;;;;;;5075036;27;45878;-65
2022/03/28 01:18:47;;;;;;;;;35.50;33.50;;;;;;;;5074018;27;45501;-66
2022/03/28 01:21:12;;;;;;;;;39.25;34.50;;;;;;;;5071562;28;47694;-65
2022/03/28 01:23:39;;;;;;;;;45.25;35.25;;;;;;;;5072622;27;45375;-66
2022/03/28 01:26:05;;;;;;;;;36.25;33.75;;;;;;;;5072415;27;45549;-65
2022/03/28 01:28:32;;;;;;;;;41.75;32.75;;;;;;;;5072472;27;45470;-66
2022/03/28 01:58:47;;;;;;;;;41.25;32.75;;;;;;;;5074473;28;45459;-65
2022/03/28 02:01:12;;;;;;;;;32.75;30.50;;;;;;;;5072858;28;45407;-65
2022/03/28 02:03:37;;;;;;;;;44.25;36.25;;;;;;;;5071006;28;45487;-65
2022/03/28 02:06:05;;;;;;;;;34.75;30.75;;;;;;;;5072129;28;46137;-65
2022/03/28 02:08:32;;;;;;;;;40.25;35.25;;;;;;;;5071833;27;45529;-65
2022/03/28 02:10:57;;;;;;;;;36.75;32.00;;;;;;;;5058333;28;45360;-66
2022/03/28 02:13:22;;;;;;;;;42.75;37.00;;;;;;;;5075266;28;45377;-64
2022/03/28 02:15:48;;;;;;;;;43.75;36.00;;;;;;;;5076808;28;45781;-64
2022/03/28 02:18:13;;;;;;;;;41.50;37.25;;;;;;;;5078153;28;45332;-66
2022/03/28 02:20:38;;;;;;;;;46.25;36.25;;;;;;;;5078277;28;45364;-67
2022/03/28 02:23:03;;;;;;;;;46.75;37.25;;;;;;;;5077542;28;45352;-67
2022/03/28 02:25:28;;;;;;;;;38.25;35.25;;;;;;;;5076977;28;45396;-66
2022/03/28 02:27:54;;;;;;;;;43.75;37.25;;;;;;;;5074690;28;46334;-66
2022/03/28 02:30:19;;;;;;;;;40.75;35.00;;;;;;;;5078070;28;45642;-66
2022/03/28 02:32:44;;;;;;;;;41.00;36.00;;;;;;;;5070615;28;45400;-65
2022/03/28 02:35:10;;;;;;;;;38.75;35.00;;;;;;;;5077771;28;45544;-65
2022/03/28 02:37:35;;;;;;;;;36.50;34.25;;;;;;;;5078049;27;45395;-67
2022/03/28 02:40:00;;;;;;;;;36.25;32.00;;;;;;;;5078411;27;45337;-66
2022/03/28 02:42:25;;;;;;;;;40.50;35.00;;;;;;;;5076743;28;45442;-64
2022/03/28 02:44:51;;;;;;;;;39.25;35.00;;;;;;;;5077502;27;45629;-64
2022/03/28 02:47:18;;;;;;;;;45.25;36.25;;;;;;;;5077369;27;45929;-65
2022/03/28 02:49:43;;;;;;;;;42.25;38.00;;;;;;;;5078028;27;45347;-65
2022/03/28 02:52:08;;;;;;;;;40.25;36.00;;;;;;;;5078239;28;45230;-65
2022/03/28 02:54:33;;;;;;;;;39.00;36.25;;;;;;;;5076564;28;46685;-65
2022/03/28 02:56:59;;;;;;;;;45.25;39.50;;;;;;;;5068016;28;45356;-65
2022/03/28 02:59:24;;;;;;;;;39.75;35.50;;;;;;;;5077297;28;45446;-65
2022/03/28 03:01:50;;;;;;;;;42.50;38.00;;;;;;;;5075713;28;45338;-64
2022/03/28 03:04:16;;;;;;;;;39.25;34.75;;;;;;;;5075235;28;48102;-65
2022/03/28 03:06:41;;;;;;;;;47.25;39.75;;;;;;;;5076404;27;45202;-65
2022/03/28 03:09:06;;;;;;;;;50.75;42.00;;;;;;;;5076840;28;45544;-65
2022/03/28 03:11:32;;;;;;;;;43.50;36.00;;;;;;;;5075703;27;45430;-65
2022/03/28 03:13:57;;;;;;;;;49.50;41.50;;;;;;;;5076428;28;45621;-64
2022/03/28 03:16:22;;;;;;;;;49.25;41.00;;;;;;;;5075669;28;46525;-64
2022/03/28 03:18:47;;;;;;;;;39.25;36.50;;;;;;;;5075734;28;45547;-64
2022/03/28 03:21:13;;;;;;;;;43.50;37.25;;;;;;;;5077141;27;45531;-64
2022/03/28 03:23:38;;;;;;;;;42.75;37.75;;;;;;;;5075562;28;48462;-64
2022/03/28 03:26:03;;;;;;;;;45.00;39.00;;;;;;;;5076481;27;45535;-64
2022/03/28 03:28:28;;;;;;;;;44.00;37.25;;;;;;;;5078087;27;45370;-64
2022/03/28 03:30:53;;;;;;;;;37.50;35.00;;;;;;;;5075830;28;45431;-64
2022/03/28 03:33:19;;;;;;;;;41.00;35.50;;;;;;;;5076261;28;46229;-64
2022/03/28 03:35:44;;;;;;;;;50.75;41.25;;;;;;;;5075564;28;45470;-64
2022/03/28 03:38:09;;;;;;;;;43.25;38.75;;;;;;;;5077289;28;45450;-66
2022/03/28 03:40:35;;;;;;;;;38.75;35.25;;;;;;;;5077194;27;45488;-65
2022/03/28 03:43:00;;;;;;;;;44.50;38.00;;;;;;;;5076919;28;45869;-66
2022/03/28 03:45:25;;;;;;;;;49.00;40.00;;;;;;;;5076539;28;45428;-66
2022/03/28 03:47:51;;;;;;;;;45.25;38.00;;;;;;;;5075074;28;45339;-67
2022/03/28 03:50:16;;;;;;;;;50.50;41.75;;;;;;;;5076632;27;45656;-66
2022/03/28 03:52:42;;;;;;;;;51.00;38.75;;;;;;;;5075958;27;45748;-66
2022/03/28 03:55:07;;;;;;;;;41.00;36.00;;;;;;;;5076724;28;45499;-65
2022/03/28 03:57:33;;;;;;;;;44.25;36.75;;;;;;;;5075260;28;45500;-64
2022/03/28 03:59:58;;;;;;;;;41.25;36.00;;;;;;;;5076540;27;45466;-65
2022/03/28 04:02:23;;;;;;;;;49.25;42.00;;;;;;;;5072986;28;46497;-66
2022/03/28 04:04:49;;;;;;;;;53.00;40.75;;;;;;;;5074559;27;45366;-66
2022/03/28 04:07:14;;;;;;;;;49.75;39.50;;;;;;;;5075628;28;45375;-66
2022/03/28 04:09:39;;;;;;;;;55.25;41.00;;;;;;;;5074420;27;45536;-67
2022/03/28 04:12:05;;;;;;;;;45.00;38.75;;;;;;;;5075021;28;46515;-66
2022/03/28 04:14:30;;;;;;;;;52.50;42.75;;;;;;;;5065288;28;46170;-65
2022/03/28 04:16:56;;;;;;;;;50.50;41.00;;;;;;;;5076164;28;45304;-65
2022/03/28 04:19:21;;;;;;;;;46.00;40.75;;;;;;;;5076563;28;45335;-65
2022/03/28 04:21:47;;;;;;;;;45.75;40.25;;;;;;;;5068072;28;47244;-65
2022/03/28 04:24:12;;;;;;;;;51.00;42.50;;;;;;;;5073046;27;46097;-65
2022/03/28 04:26:37;;;;;;;;;57.00;45.25;;;;;;;;5073572;28;45401;-66
2022/03/28 04:29:03;;;;;;;;;50.75;42.00;;;;;;;;5076064;28;45386;-66
2022/03/28 04:31:28;;;;;;;;;54.25;40.25;;;;;;;;5076512;27;45718;-66
2022/03/28 04:33:54;;;;;;;;;51.00;41.00;;;;;;;;5075758;28;45339;-67
2022/03/28 04:36:21;;;;;;;;;55.25;44.75;;;;;;;;5074037;28;46177;-66
2022/03/28 04:38:46;;;;;;;;;55.00;43.25;;;;;;;;5075587;27;45388;-67
2022/03/28 04:41:12;;;;;;;;;50.25;43.50;;;;;;;;5063131;28;46119;-66
2022/03/28 04:43:37;;;;;;;;;49.75;42.25;;;;;;;;5075601;27;45332;-66
2022/03/28 04:46:02;;;;;;;;;50.00;40.75;;;;;;;;5075918;28;45442;-66
2022/03/28 04:48:27;;;;;;;;;50.75;42.75;;;;;;;;5072676;28;45535;-65
2022/03/28 04:50:53;;;;;;;;;60.00;47.25;;;;;;;;5075128;28;46411;-65
2022/03/28 04:53:18;;;;;;;;;55.50;43.75;;;;;;;;5075746;28;45487;-66
2022/03/28 04:55:43;;;;;;;;;51.50;42.75;;;;;;;;5075789;27;45339;-64
2022/03/28 04:58:08;;;;;;;;;52.25;43.25;;;;;;;;5076400;27;45300;-65
2022/03/28 05:00:34;;;;;;;;;54.25;43.25;;;;;;;;5075269;28;45467;-63
2022/03/28 05:02:59;;;;;;;;;50.25;42.25;;;;;;;;5074298;28;45170;-64
2022/03/28 05:05:25;;;;;;;;;58.25;44.50;;;;;;;;5074091;28;45434;-63
2022/03/28 05:07:50;;;;;;;;;57.75;47.00;;;;;;;;5074905;27;45365;-64
2022/03/28 05:10:15;;;;;;;;;53.75;43.00;;;;;;;;5072965;28;47421;-64
2022/03/28 05:12:40;;;;;;;;;58.25;46.00;;;;;;;;5061516;28;45462;-63
2022/03/28 05:15:06;;;;;;;;;59.50;46.00;;;;;;;;5074980;28;45456;-67
2022/03/28 05:17:31;;;;;;;;;49.00;42.75;;;;;;;;5075360;27;45388;-68
2022/03/28 05:19:57;;;;;;;;;50.00;42.00;;;;;;;;5074628;27;45598;-67
2022/03/28 05:22:23;;;;;;;;;52.50;44.25;;;;;;;;5074226;28;45509;-67
2022/03/28 05:24:49;;;;;;;;;55.25;44.75;;;;;;;;5073978;28;45311;-67
2022/03/28 05:27:15;;;;;;;;;52.75;43.00;;;;;;;;5075047;27;45650;-66
2022/03/28 05:29:40;;;;;;;;;57.75;46.25;;;;;;;;5074795;28;45636;-67
2022/03/28 05:32:06;;;;;;;;;52.25;44.75;;;;;;;;5075269;27;45431;-67
2022/03/28 05:34:31;;;;;;;;;52.50;44.00;;;;;;;;5074369;28;45555;-68
2022/03/28 05:37:06;;;;;;;;;57.50;48.75;;;;;;;;5074849;28;45522;-68
2022/03/28 05:39:33;;;;;;;;;58.50;46.50;;;;;;;;5073292;28;45491;-67
2022/03/28 05:41:58;;;;;;;;;53.25;43.00;;;;;;;;5066840;28;46487;-66
2022/03/28 05:44:24;;;;;;;;;60.25;47.25;;;;;;;;5074243;28;45482;-66
2022/03/28 05:46:49;;;;;;;;;55.25;44.75;;;;;;;;5072806;28;46113;-67
2022/03/28 05:49:15;;;;;;;;;54.25;43.50;;;;;;;;5075337;28;48684;-67
2022/03/28 05:51:40;;;;;;;;;55.00;46.00;;;;;;;;5080181;27;49848;-67
2022/03/28 05:54:05;;;;;;;;;53.00;43.00;;;;;;;;5080486;28;45348;-67
2022/03/28 05:56:31;;;;;;;;;54.00;44.25;;;;;;;;5081348;28;45515;-68
2022/03/28 05:58:56;;;;;;;;;59.75;45.25;;;;;;;;5080869;27;46266;-68
2022/03/28 06:01:22;;;;;;;;;50.25;42.25;;;;;;;;5078219;28;45587;-66
2022/03/28 06:03:47;;;;;;;;;59.50;44.50;;;;;;;;5081146;28;45336;-66
2022/03/28 06:06:13;;;;;;;;;59.25;45.00;;;;;;;;5079130;28;45422;-69
2022/03/28 06:08:38;;;;;;;;;48.25;37.00;;;;;;;;5079366;27;45672;-68
2022/03/28 06:11:04;;;;;;;;;55.50;46.00;;;;;;;;5078823;28;45486;-68
2022/03/28 06:13:30;;;;;;;;;65.25;47.00;;;;;;;;5080728;27;45360;-69
2022/03/28 06:15:55;;;;;;;;;59.75;46.00;;;;;;;;5078698;27;45514;-67
2022/03/28 06:18:20;;;;;;;;;61.75;49.00;;;;;;;;5075293;28;48573;-67
2022/03/28 06:20:45;;;;;;;;;49.75;42.75;;;;;;;;5079532;28;45353;-67
2022/03/28 06:23:12;;;;;;;;;53.75;43.50;;;;;;;;5078581;27;45451;-67
2022/03/28 06:25:37;;;;;;;;;54.50;45.75;;;;;;;;5081411;28;45414;-67
2022/03/28 06:28:02;;;;;;;;;56.50;46.00;;;;;;;;5079160;28;47473;-68
2022/03/28 06:30:27;;;;;;;;;53.75;43.50;;;;;;;;5080689;27;45509;-67
2022/03/28 06:32:53;;;;;;;;;52.25;43.50;;;;;;;;5072232;28;45470;-68
2022/03/28 06:35:18;;;;;;;;;58.75;46.50;;;;;;;;5081298;28;45434;-69
2022/03/28 06:37:43;;;;;;;;;62.00;48.00;;;;;;;;5079803;28;48240;-68
2022/03/28 06:40:09;;;;;;;;;53.50;44.00;;;;;;;;5080421;28;45447;-69
2022/03/28 06:42:34;;;;;;;;;54.75;45.00;;;;;;;;5081167;28;45415;-68
2022/03/28 06:44:59;;;;;;;;;60.00;47.75;;;;;;;;5081034;28;45394;-68
2022/03/28 06:47:26;;;;;;;;;55.00;46.25;;;;;;;;5079912;27;46933;-68
2022/03/28 06:49:51;;;;;;;;;54.50;44.00;;;;;;;;5080887;27;45456;-68
2022/03/28 06:52:17;;;;;;;;;54.00;43.25;;;;;;;;5081636;28;45525;-69
2022/03/28 06:54:42;;;;;;;;;56.50;45.50;;;;;;;;5079452;28;45455;-69
2022/03/28 06:57:07;;;;;;;;;58.50;45.50;;;;;;;;5079161;28;48719;-67
2022/03/28 06:59:33;;;;;;;;;58.00;47.00;;;;;;;;5080911;27;45474;-68
2022/03/28 07:01:58;;;;;;;;;53.50;44.25;;;;;;;;5076874;27;45340;-67
2022/03/28 07:04:24;;;;;;;;;56.25;44.75;;;;;;;;5078295;28;45452;-67
2022/03/28 07:06:49;;;;;;;;;58.00;47.00;;;;;;;;5077115;27;45595;-68
2022/03/28 07:09:14;;;;;;;;;58.75;48.00;;;;;;;;5075793;28;45530;-67
2022/03/28 07:11:40;;;;;;;;;57.25;44.50;;;;;;;;5075899;28;45553;-69
2022/03/28 07:14:05;;;;;;;;;61.00;48.25;;;;;;;;5077409;28;45429;-68
2022/03/28 07:16:30;;;;;;;;;42.50;37.25;;;;;;;;5077735;27;45768;-68
2022/03/28 07:18:56;;;;;;;;;57.50;46.00;;;;;;;;5077257;28;45553;-68
2022/03/28 07:21:21;;;;;;;;;60.75;48.00;;;;;;;;5075951;28;45479;-68
2022/03/28 07:23:48;;;;;;;;;59.00;46.50;;;;;;;;5077107;28;45292;-67
2022/03/28 07:26:14;;;;;;;;;60.50;49.50;;;;;;;;5076842;27;46443;-67
2022/03/28 07:28:39;;;;;;;;;58.00;48.00;;;;;;;;5076195;28;45331;-68
2022/03/28 07:31:08;;;;;;;;;63.25;49.00;;;;;;;;5077769;27;45444;-67
2022/03/28 07:33:34;;;;;;;;;59.25;48.25;;;;;;;;5075770;28;45384;-68
2022/03/28 07:35:59;;;;;;;;;58.00;47.25;;;;;;;;5076991;27;45633;-68
2022/03/28 07:38:25;;;;;;;;;62.25;48.75;;;;;;;;5076963;28;45433;-68
2022/03/28 07:40:50;;;;;;;;;65.25;50.50;;;;;;;;5076977;27;45561;-68
2022/03/28 07:43:15;;;;;;;;;64.75;49.25;;;;;;;;5077595;28;45481;-69
2022/03/28 07:45:41;;;;;;;;;59.75;48.25;;;;;;;;5076767;28;45691;-69
2022/03/28 07:48:06;;;;;;;;;64.75;49.75;;;;;;;;5075144;28;45343;-68
2022/03/28 07:50:31;;;;;;;;;61.00;49.00;;;;;;;;5077006;27;45888;-68
2022/03/28 07:52:57;;;;;;;;;59.75;47.50;;;;;;;;5076730;28;45402;-68
2022/03/28 07:55:22;;;;;;;;;57.00;47.00;;;;;;;;5075693;28;48552;-68
2022/03/28 07:57:48;;;;;;;;;59.50;48.25;;;;;;;;5075161;27;45459;-68
2022/03/28 08:00:15;;;;;;;;;63.50;49.00;;;;;;;;5076902;27;45509;-68
2022/03/28 08:02:40;;;;;;;;;60.50;47.25;;;;;;;;5076540;27;45502;-70
2022/03/28 08:05:07;;;;;;;;;60.25;48.00;;;;;;;;5073604;28;46515;-69
2022/03/28 08:07:32;;;;;;;;;65.00;48.00;;;;;;;;5077125;27;45465;-69
2022/03/28 08:09:57;;;;;;;;;61.00;48.00;;;;;;;;5075310;28;45422;-69
2022/03/28 08:12:23;;;;;;;;;59.75;46.50;;;;;;;;5076164;28;45448;-68
2022/03/28 08:14:49;;;;;;;;;59.75;48.25;;;;;;;;5076107;28;45764;-68
2022/03/28 08:17:15;;;;;;;;;62.50;50.00;;;;;;;;5076375;28;45527;-68
2022/03/28 08:19:40;;;;;;;;;59.00;46.75;;;;;;;;5075130;28;45408;-68
2022/03/28 08:22:05;;;;;;;;;65.00;51.50;;;;;;;;5076977;27;45340;-68
2022/03/28 08:24:31;;;;;;;;;62.00;50.00;;;;;;;;5074752;28;47680;-68
2022/03/28 08:26:56;;;;;;;;;63.50;49.00;;;;;;;;5074518;28;45405;-68
2022/03/28 08:29:21;;;;;;;;;64.25;50.25;;;;;;;;5076291;27;45821;-68
2022/03/28 08:31:47;;;;;;;;;62.50;49.50;;;;;;;;5074871;28;45821;-68
2022/03/28 08:34:12;;;;;;;;;62.50;49.00;;;;;;;;5076706;28;46456;-68
2022/03/28 08:36:37;;;;;;;;;61.50;48.50;;;;;;;;5075819;28;45335;-68
2022/03/28 08:39:03;;;;;;;;;64.00;50.00;;;;;;;;5074663;28;45667;-68
2022/03/28 08:41:31;;;;;;;;;63.50;49.50;;;;;;;;5076322;27;45440;-69
2022/03/28 08:43:56;;;;;;;;;61.75;49.50;;;;;;;;5074280;28;46404;-69
2022/03/28 08:46:21;;;;;;;;;64.50;51.50;;;;;;;;5076472;28;45332;-67
2022/03/28 08:48:47;;;;;;;;;60.75;47.50;;;;;;;;5067152;28;45311;-68
2022/03/28 08:51:13;;;;;;;;;63.75;50.00;;;;;;;;5075648;28;45598;-68
2022/03/28 08:53:39;;;;;;;;;65.50;51.00;;;;;;;;5075336;28;45479;-69
2022/03/28 08:56:05;;;;;;;;;60.50;47.75;;;;;;;;5075637;27;45364;-68
2022/03/28 08:58:30;;;;;;;;;62.50;51.75;;;;;;;;5076507;28;45382;-69
2022/03/28 09:00:56;;;;;;;;;58.50;48.00;;;;;;;;5075480;28;45550;-69
2022/03/28 09:03:34;;;;;;;;;65.25;51.75;;;;;;;;5067983;28;47699;-68
2022/03/28 09:05:59;;;;;;;;;60.75;49.25;;;;;;;;5075518;27;45514;-69
2022/03/28 09:08:24;;;;;;;;;58.75;46.25;;;;;;;;5074298;28;45318;-69
2022/03/28 09:10:49;;;;;;;;;63.00;48.75;;;;;;;;5075489;27;45269;-70
2022/03/28 09:13:19;;;;;;;;;56.00;44.75;;;;;;;;5075990;28;45971;-68
2022/03/28 09:15:55;;;;;;;;;62.25;49.00;;;;;;;;5068125;28;45728;-69
2022/03/28 09:18:25;;;;;;;;;60.75;45.50;;;;;;;;5075343;27;45427;-69
2022/03/28 09:20:54;;;;;;;;;55.75;44.00;;;;;;;;5075487;27;45440;-69
2022/03/28 09:23:24;;;;;;;;;55.00;43.50;;;;;;;;5075029;28;46109;-70
2022/03/28 09:25:50;;;;;;;;;59.50;46.50;;;;;;;;5073546;28;46366;-69
2022/03/28 09:28:15;;;;;;;;;53.00;42.25;;;;;;;;5075374;27;45439;-70
2022/03/28 09:30:40;;;;;;;;;49.00;41.50;;;;;;;;5075109;28;45451;-71
2022/03/28 09:33:06;;;;;;;;;51.00;43.25;;;;;;;;5075117;28;45285;-71
2022/03/28 09:35:31;;;;;;;;;49.50;40.25;;;;;;;;5075396;27;45479;-70
2022/03/28 09:38:02;;;;;;;;;50.50;41.25;;;;;;;;5075082;27;45513;-69
2022/03/28 09:40:30;;;;;;;;;48.50;40.00;;;;;;;;5071617;28;45361;-70
2022/03/28 09:42:56;;;;;;;;;47.25;39.50;;;;;;;;5074987;27;45734;-70
2022/03/28 09:45:23;;;;;;;;;48.50;40.25;;;;;;;;5074864;27;45546;-70
2022/03/28 09:48:01;;;;;;;;;47.00;39.50;;;;;;;;5067879;28;45292;-70
2022/03/28 09:50:30;;;;;;;;;51.50;41.75;;;;;;;;5072328;28;45487;-70
2022/03/28 09:52:56;;;;;;;;;47.75;39.50;;;;;;;;5075041;27;46217;-70
2022/03/28 09:55:21;;;;;;;;;52.00;43.50;;;;;;;;5074219;28;45476;-70
2022/03/28 09:57:46;;;;;;;;;46.75;38.00;;;;;;;;5075057;28;45376;-69
2022/03/28 10:00:17;;;;;;;;;52.50;39.25;;;;;;;;5069328;27;45372;-69
2022/03/28 10:02:42;;;;;;;;;50.50;40.50;;;;;;;;5068594;27;48223;-71
2022/03/28 10:05:08;;;;;;;;;47.25;39.25;;;;;;;;5072971;27;45465;-68
2022/03/28 10:07:33;;;;;;;;;49.00;40.50;;;;;;;;5083238;27;45406;-69
2022/03/28 10:09:59;;;;;;;;;44.75;38.00;;;;;;;;5070458;27;45722;-71
2022/03/28 10:12:25;;;;;;;;;42.75;36.75;;;;;;;;5073225;27;46257;-70
2022/03/28 10:14:54;;;;;;;;;43.00;37.25;;;;;;;;5076385;27;45494;-68
2022/03/28 10:17:19;;;;;;;;;49.00;40.00;;;;;;;;5073320;27;45199;-69
2022/03/28 10:19:45;;;;;;;;;50.25;39.50;;;;;;;;5081173;27;45316;-69
2022/03/28 10:22:12;;;;;;;;;54.00;41.25;;;;;;;;5072042;27;46615;-69
2022/03/28 10:24:40;;;;;;;;;46.00;38.75;;;;;;;;5073318;27;45452;-69
2022/03/28 10:27:05;;;;;;;;;48.75;38.25;;;;;;;;5078488;27;45859;-70
2022/03/28 10:29:35;;;;;;;;;43.00;36.75;;;;;;;;5072456;27;45518;-69
2022/03/28 10:32:02;;;;;;;;;38.50;34.25;;;;;;;;5070686;27;46513;-70
2022/03/28 10:34:43;;;;;;;;;42.75;36.25;;;;;;;;5068757;27;45586;-70
2022/03/28 10:37:26;;;;;;;;;46.25;38.75;;;;;;;;5082477;27;45530;-69
2022/03/28 10:40:11;;;;;;;;;37.50;32.50;;;;;;;;5075090;27;45417;-70
2022/03/28 10:42:36;;;;;;;;;44.50;36.00;;;;;;;;5076632;27;46724;-71
2022/03/28 10:45:03;;;;;;;;;39.00;33.75;;;;;;;;5081383;27;45974;-69
2022/03/28 10:47:46;;;;;;;;;40.50;33.25;;;;;;;;5076711;27;45452;-69
2022/03/28 10:50:12;;;;;;;;;33.25;31.00;;;;;;;;5091880;27;45513;-69
2022/03/28 10:52:37;;;;;;;;;35.50;30.50;;;;;;;;5078095;27;46572;-70
2022/03/28 10:55:09;;;;;;;;;37.75;33.25;;;;;;;;5079559;27;45421;-69
2022/03/28 10:57:34;;;;;;;;;34.25;29.75;;;;;;;;5076516;27;45539;-70
2022/03/28 11:00:08;;;;;;;;;31.25;29.75;;;;;;;;5076406;27;45505;-69
2022/03/28 11:02:34;;;;;;;;;38.00;34.00;;;;;;;;5082607;27;45281;-70
2022/03/28 11:05:06;;;;;;;;;38.75;33.50;;;;;;;;5076059;27;45418;-70
2022/03/28 11:07:32;;;;;;;;;40.25;33.75;;;;;;;;5074416;28;45572;-69
2022/03/28 11:10:01;;;;;;;;;31.25;29.75;;;;;;;;5077206;27;45295;-69
2022/03/28 11:12:56;;;;;;;;;33.50;31.25;;;;;;;;5077204;27;47750;-71
2022/03/28 11:15:23;;;;;;;;;34.25;31.50;;;;;;;;5065134;27;45321;-71
2022/03/28 11:17:56;;;;;;;;;31.25;29.75;;;;;;;;5078631;27;45401;-69
2022/03/28 11:20:23;;;;;;;;;33.25;30.25;;;;;;;;5075916;28;45399;-69
2022/03/28 11:22:48;;;;;;;;;45.50;37.25;;;;;;;;5075725;28;47372;-69
2022/03/28 11:25:32;;;;;;;;;37.50;33.50;;;;;;;;5076456;28;45477;-69
2022/03/28 11:28:01;;;;;;;;;37.75;32.50;;;;;;;;5077203;28;45376;-69
2022/03/28 11:30:26;;;;;;;;;38.00;33.25;;;;;;;;5077113;27;45317;-70
2022/03/28 11:32:51;;;;;;;;;43.00;36.00;;;;;;;;5069649;28;47492;-70
2022/03/28 11:35:17;;;;;;;;;41.75;35.50;;;;;;;;5075837;28;45639;-69
2022/03/28 11:37:42;;;;;;;;;49.00;37.00;;;;;;;;5077383;27;45437;-70
2022/03/28 11:40:08;;;;;;;;;42.25;34.75;;;;;;;;5077447;28;45466;-69
2022/03/28 11:42:35;;;;;;;;;43.00;34.50;;;;;;;;5076446;27;47754;-71
2022/03/28 11:45:11;;;;;;;;;40.00;34.00;;;;;;;;5076810;27;45226;-70
2022/03/28 11:47:37;;;;;;;;;41.00;34.50;;;;;;;;5074650;28;45392;-70
2022/03/28 11:50:03;;;;;;;;;33.50;31.25;;;;;;;;5077030;28;45315;-71
2022/03/28 11:52:29;;;;;;;;;35.00;32.00;;;;;;;;5072906;28;46458;-70
2022/03/28 11:54:58;;;;;;;;;32.50;31.50;;;;;;;;5075386;28;45464;-70
2022/03/28 12:00:18;;;;;;;;;38.00;34.50;;;;;;;;5076586;28;45312;-70
2022/03/28 12:02:57;;;;;;;;;37.25;32.25;;;;;;;;5076635;28;45513;-71
2022/03/28 12:05:26;;;;;;;;;40.75;33.00;;;;;;;;5076506;27;45509;-70
2022/03/28 12:07:52;;;;;;;;;39.00;32.75;;;;;;;;5075353;28;45491;-71
2022/03/28 12:10:17;;;;;;;;;32.75;28.75;;;;;;;;5075664;28;45491;-71
2022/03/28 12:12:43;;;;;;;;;37.50;31.75;;;;;;;;5076362;27;45495;-71
2022/03/28 12:15:12;;;;;;;;;26.25;26.25;;;;;;;;5076365;27;45552;-70
2022/03/28 12:17:37;;;;;;;;;28.50;26.75;;;;;;;;5076716;28;45392;-69
2022/03/28 12:20:06;;;;;;;;;28.50;28.25;;;;;;;;5074820;28;45578;-72
2022/03/28 12:22:43;;;;;;;;;37.25;32.25;;;;;;;;5088672;27;48811;-72
2022/03/28 12:25:08;;;;;;;;;32.25;31.50;;;;;;;;5074777;28;45815;-71
2022/03/28 12:27:33;;;;;;;;;30.25;25.75;;;;;;;;5074803;28;45447;-71
2022/03/28 12:29:59;;;;;;;;;30.00;26.00;;;;;;;;5076232;27;45372;-72
2022/03/28 12:32:24;;;;;;;;;27.25;26.75;;;;;;;;5073267;28;48635;-72
2022/03/28 12:34:49;;;;;;;;;27.75;25.25;;;;;;;;5076278;27;45476;-72
2022/03/28 12:37:15;;;;;;;;;30.25;28.25;;;;;;;;5077058;28;45376;-72
2022/03/28 12:39:43;;;;;;;;;30.00;28.25;;;;;;;;5076076;27;45427;-73
2022/03/28 12:42:09;;;;;;;;;31.50;29.00;;;;;;;;5076106;27;45396;-71
2022/03/28 12:44:34;;;;;;;;;31.00;23.25;;;;;;;;5075695;28;45446;-72
2022/03/28 12:47:06;;;;;;;;;30.50;29.00;;;;;;;;5074757;28;45444;-72
2022/03/28 12:49:43;;;;;;;;;32.50;29.50;;;;;;;;5072720;28;45396;-72
2022/03/28 12:52:09;;;;;;;;;36.50;30.50;;;;;;;;5075631;28;45791;-71
2022/03/28 12:54:35;;;;;;;;;37.75;28.75;;;;;;;;5075825;27;45356;-72
2022/03/28 12:57:00;;;;;;;;;28.75;26.00;;;;;;;;5075808;28;45407;-71
2022/03/28 12:59:30;;;;;;;;;30.00;26.00;;;;;;;;5074809;27;45389;-71
2022/03/28 13:02:13;;;;;;;;;25.00;25.00;;;;;;;;5075619;27;45865;-71
2022/03/28 13:04:43;;;;;;;;;31.00;24.50;;;;;;;;5072811;28;45374;-70
2022/03/28 13:07:08;;;;;;;;;27.00;24.00;;;;;;;;5091348;27;45440;-71
2022/03/28 13:09:34;;;;;;;;;29.25;26.75;;;;;;;;5074111;28;45360;-71
2022/03/28 13:12:09;;;;;;;;;34.25;25.25;;;;;;;;5075155;28;46851;-71
2022/03/28 13:14:34;;;;;;;;;32.25;29.75;;;;;;;;5074185;28;45351;-72
2022/03/28 13:17:12;;;;;;;;;25.50;24.25;;;;;;;;5075640;27;45262;-71
2022/03/28 13:19:39;;;;;;;;;24.00;23.50;;;;;;;;5088261;27;45624;-71
2022/03/28 13:22:06;;;;;;;;;29.25;29.25;;;;;;;;5075647;27;45376;-72
2022/03/28 13:24:31;;;;;;;;;29.25;27.50;;;;;;;;5073605;28;45485;-72
2022/03/28 13:29:47;;;;;;;;;29.50;26.75;;;;;;;;5075272;28;45578;-72
2022/03/28 13:32:12;;;;;;;;;35.00;29.25;;;;;;;;5075194;27;45693;-71
2022/03/28 13:34:38;;;;;;;;;33.75;27.75;;;;;;;;5075624;27;45230;-70
2022/03/28 13:37:06;;;;;;;;;28.00;25.00;;;;;;;;5074591;28;45452;-70
2022/03/28 13:39:32;;;;;;;;;33.25;27.25;;;;;;;;5075359;27;45478;-71
2022/03/28 13:41:57;;;;;;;;;24.00;24.00;;;;;;;;5073514;28;47537;-70
2022/03/28 13:44:22;;;;;;;;;29.50;25.50;;;;;;;;5075044;27;49756;-72
2022/03/28 13:46:49;;;;;;;;;32.75;27.00;;;;;;;;5075262;27;45339;-71
2022/03/28 13:49:14;;;;;;;;;32.75;26.50;;;;;;;;5073668;27;45393;-71
2022/03/28 13:51:39;;;;;;;;;28.00;24.00;;;;;;;;5073073;28;47618;-71
2022/03/28 13:54:05;;;;;;;;;25.25;25.25;;;;;;;;5069132;28;45473;-69
2022/03/28 13:56:30;;;;;;;;;29.00;28.75;;;;;;;;5073270;27;45618;-71
2022/03/28 13:58:56;;;;;;;;;29.25;27.50;;;;;;;;5075105;27;45499;-70
2022/03/28 14:01:27;;;;;;;;;27.75;20.00;;;;;;;;5075176;28;45932;-69
2022/03/28 14:03:52;;;;;;;;;25.50;23.25;;;;;;;;5067655;27;45494;-70
2022/03/28 14:06:19;;;;;;;;;28.50;24.50;;;;;;;;5068019;28;45380;-70
2022/03/28 14:08:44;;;;;;;;;25.50;22.25;;;;;;;;5067993;28;46311;-70
2022/03/28 14:11:12;;;;;;;;;32.25;28.00;;;;;;;;5067561;28;46585;-70
2022/03/28 14:13:38;;;;;;;;;26.50;24.00;;;;;;;;5066408;28;45499;-68
2022/03/28 14:16:03;;;;;;;;;27.25;25.00;;;;;;;;5070939;27;45494;-70
2022/03/28 14:18:29;;;;;;;;;30.00;26.75;;;;;;;;5072100;28;45391;-69
2022/03/28 14:20:54;;;;;;;;;30.75;25.75;;;;;;;;5072755;28;45470;-71
2022/03/28 14:23:19;;;;;;;;;26.75;24.25;;;;;;;;5074114;28;45514;-69
2022/03/28 14:25:44;;;;;;;;;26.25;24.00;;;;;;;;5072074;28;45434;-70
2022/03/28 14:28:10;;;;;;;;;27.50;23.75;;;;;;;;5072627;28;45238;-70
2022/03/28 14:30:35;;;;;;;;;27.00;24.00;;;;;;;;5067987;27;45644;-69
2022/03/28 14:33:00;;;;;;;;;23.75;22.00;;;;;;;;5073089;27;45690;-70
2022/03/28 14:35:29;;;;;;;;;29.75;25.75;;;;;;;;5075536;27;45323;-69
2022/03/28 14:37:55;;;;;;;;;29.75;27.75;;;;;;;;5086147;27;45398;-69
2022/03/28 14:40:21;;;;;;;;;23.00;19.00;;;;;;;;5077058;27;48702;-70
2022/03/28 14:42:47;;;;;;;;;20.50;20.25;;;;;;;;5077180;27;45301;-70
2022/03/28 14:45:13;;;;;;;;;29.50;23.00;;;;;;;;5080319;27;45556;-70